Time;durP1;ratioP1;P1;durP2;ratioP2;P2;SDS_P1;SDS_P2;PMS_P1;PMS_P2;Temp;Humidity;BMP_temperature;BMP_pressure;BME280_temperature;BME280_humidity;BME280_pressure;Samples;Min_cycle;Max_cycle;Signal;HPM_P1;HPM_P2
2023/02/03 00:05:46;;;;;;;1999.90;999.90;;;9.20;99.90;;;;;;6736493;88;20219;-75
2023/02/03 00:15:46;;;;;;;1999.90;999.90;;;9.20;99.90;;;;;;6736585;88;20168;-75
2023/02/03 00:25:47;;;;;;;1999.90;999.90;;;9.20;99.90;;;;;;6742687;88;20749;-75
2023/02/03 00:35:48;;;;;;;1999.90;999.90;;;9.20;99.90;;;;;;6731221;88;20338;-75
2023/02/03 00:45:49;;;;;;;1999.90;999.90;;;9.30;99.90;;;;;;6733682;88;20189;-76
2023/02/03 00:55:50;;;;;;;1999.90;999.90;;;9.30;99.90;;;;;;6738740;88;20214;-76
2023/02/03 01:05:51;;;;;;;1999.90;999.90;;;9.40;99.90;;;;;;6729301;88;20617;-75
2023/02/03 01:15:51;;;;;;;1999.90;999.90;;;9.40;99.90;;;;;;6734951;88;20322;-76
2023/02/03 01:25:52;;;;;;;1999.90;999.90;;;9.40;99.90;;;;;;6733938;88;20185;-76
2023/02/03 01:35:52;;;;;;;1999.90;999.90;;;9.40;99.90;;;;;;6729879;88;20215;-75
2023/02/03 01:45:53;;;;;;;1999.90;999.90;;;9.40;99.90;;;;;;6731898;88;20205;-75
2023/02/03 01:55:54;;;;;;;1999.90;999.90;;;9.40;99.90;;;;;;6732877;88;20268;-75
2023/02/03 02:06:06;;;;;;;1999.90;999.90;;;9.40;99.90;;;;;;6726307;88;20581;-75
2023/02/03 02:16:12;;;;;;;1999.90;999.90;;;9.40;99.90;;;;;;6747959;88;20574;-75
2023/02/03 02:26:37;;;;;;;1999.90;999.90;;;9.40;99.90;;;;;;6743306;88;20641;-74
2023/02/03 02:37:03;;;;;;;1999.90;999.90;;;9.40;99.90;;;;;;6736319;88;20632;-75
2023/02/03 02:47:17;;;;;;;1999.90;999.90;;;9.40;99.90;;;;;;6738659;88;20232;-75
2023/02/03 02:57:20;;;;;;;1999.90;999.90;;;9.40;99.90;;;;;;6732646;88;20632;-74
2023/02/03 03:07:25;;;;;;;1999.90;999.90;;;9.50;99.90;;;;;;6739446;88;20364;-74
2023/02/03 03:17:33;;;;;;;1999.90;999.90;;;9.50;99.90;;;;;;6726518;88;20191;-75
2023/02/03 03:27:39;;;;;;;1999.90;999.90;;;9.50;99.90;;;;;;6731364;88;20315;-74
2023/02/03 03:37:44;;;;;;;1999.90;999.90;;;9.50;99.90;;;;;;6746672;88;20293;-76
2023/02/03 03:48:08;;;;;;;1999.90;999.90;;;9.50;99.90;;;;;;6756776;88;20739;-75
2023/02/03 03:58:24;;;;;;;1999.90;999.90;;;9.50;99.90;;;;;;6735775;88;20310;-74
2023/02/03 04:08:25;;;;;;;1999.90;999.90;;;9.50;99.90;;;;;;6733878;88;20244;-75
2023/02/03 04:18:25;;;;;;;1999.90;999.90;;;9.40;99.90;;;;;;6734119;88;20401;-75
2023/02/03 04:28:26;;;;;;;1999.90;999.90;;;9.50;99.90;;;;;;6732162;88;20284;-76
2023/02/03 04:38:26;;;;;;;1999.90;999.90;;;9.50;99.90;;;;;;6726318;88;20172;-76
2023/02/03 04:48:27;;;;;;;1999.90;999.90;;;9.40;99.90;;;;;;6730828;88;20186;-76
2023/02/03 04:58:28;;;;;;;1999.90;999.90;;;9.40;99.90;;;;;;6735428;88;20192;-76
2023/02/03 05:08:29;;;;;;;1999.90;999.90;;;9.40;99.90;;;;;;6740559;88;20177;-77
2023/02/03 05:18:29;;;;;;;1999.90;999.90;;;9.40;99.90;;;;;;6746932;88;20209;-78
2023/02/03 05:28:30;;;;;;;1999.90;999.90;;;9.50;99.90;;;;;;6745448;88;20185;-78
2023/02/03 05:38:30;;;;;;;1999.90;999.90;;;9.40;99.90;;;;;;6745581;88;20246;-77
2023/02/03 05:48:32;;;;;;;1999.90;999.90;;;9.40;99.90;;;;;;6738475;88;20182;-77
2023/02/03 05:58:32;;;;;;;1999.90;999.90;;;9.50;99.90;;;;;;6743158;88;20692;-76
2023/02/03 06:08:33;;;;;;;1999.90;999.90;;;9.50;99.90;;;;;;6742066;88;20311;-78
2023/02/03 06:18:33;;;;;;;1999.90;999.90;;;9.50;99.90;;;;;;6732000;88;20675;-77
2023/02/03 06:28:34;;;;;;;1999.90;999.90;;;9.50;99.90;;;;;;6734189;88;20246;-77
2023/02/03 06:38:34;;;;;;;1999.90;999.90;;;9.60;99.90;;;;;;6733731;88;20320;-77
2023/02/03 06:48:35;;;;;;;1999.90;999.90;;;9.60;99.90;;;;;;6737343;88;20597;-78
2023/02/03 06:58:35;;;;;;;1999.90;999.90;;;9.60;99.90;;;;;;6750407;88;20645;-78
2023/02/03 07:08:36;;;;;;;1999.90;999.90;;;9.70;99.90;;;;;;6745238;88;20322;-76
2023/02/03 07:18:36;;;;;;;1999.90;999.90;;;9.60;99.90;;;;;;6744107;88;20212;-77
2023/02/03 07:28:37;;;;;;;1999.90;999.90;;;9.60;99.90;;;;;;6750018;88;20218;-76
2023/02/03 07:38:38;;;;;;;1999.90;999.90;;;9.70;99.90;;;;;;6746901;88;20278;-78
2023/02/03 07:48:38;;;;;;;1999.90;999.90;;;9.70;99.90;;;;;;6745910;88;20217;-77
2023/02/03 07:58:39;;;;;;;1999.90;999.90;;;9.70;99.90;;;;;;6749605;88;20196;-74
2023/02/03 08:08:40;;;;;;;1999.90;999.90;;;9.80;99.90;;;;;;6758606;88;20194;-75
2023/02/03 08:18:41;;;;;;;1999.90;999.90;;;9.90;99.90;;;;;;6744486;88;20176;-76
2023/02/03 08:28:42;;;;;;;1999.90;999.90;;;9.90;99.90;;;;;;6739612;88;20196;-78
2023/02/03 08:38:42;;;;;;;1999.90;999.90;;;9.90;99.90;;;;;;6739466;88;20200;-77
2023/02/03 08:48:43;;;;;;;1999.90;999.90;;;10.00;99.90;;;;;;6741650;88;20181;-76
2023/02/03 08:58:43;;;;;;;1999.90;999.90;;;10.00;99.90;;;;;;6739519;88;20578;-76
2023/02/03 09:08:45;;;;;;;1999.90;999.90;;;10.10;99.90;;;;;;6748766;88;20283;-76
2023/02/03 09:18:46;;;;;;;1999.90;999.90;;;10.00;99.90;;;;;;6744786;88;20246;-76
2023/02/03 09:28:47;;;;;;;1999.90;999.90;;;10.10;99.90;;;;;;6739049;88;20188;-76
2023/02/03 09:38:47;;;;;;;1999.90;999.90;;;10.10;99.90;;;;;;6740099;88;20230;-78
2023/02/03 09:48:54;;;;;;;1999.90;999.90;;;10.00;99.90;;;;;;6745288;88;20214;-78
2023/02/03 09:58:55;;;;;;;1999.90;999.90;;;10.00;99.90;;;;;;6742392;88;21115;-77
2023/02/03 10:09:25;;;;;;;1999.90;999.90;;;10.00;99.90;;;;;;6742918;88;20253;-77
2023/02/03 10:19:47;;;;;;;1999.90;999.90;;;10.10;99.90;;;;;;6738782;88;21053;-79
2023/02/03 10:29:59;;;;;;;1999.90;999.90;;;10.00;99.90;;;;;;6738358;88;20190;-76
2023/02/03 10:40:01;;;;;;;1999.90;999.90;;;10.00;99.90;;;;;;6743033;88;20281;-76
2023/02/03 10:50:06;;;;;;;1999.90;999.90;;;10.10;99.90;;;;;;6743544;88;20217;-76
2023/02/03 11:00:21;;;;;;;1999.90;999.90;;;10.00;99.90;;;;;;6749490;88;20201;-77
2023/02/03 11:10:38;;;;;;;1999.90;999.90;;;10.20;99.90;;;;;;6757019;87;20722;-78
2023/02/03 11:20:39;;;;;;;1999.90;999.90;;;10.50;99.90;;;;;;6720224;78;20216;-77
2023/02/03 11:30:41;;;;;;;1999.90;999.90;;;10.70;99.90;;;;;;6700007;88;20532;-78
2023/02/03 11:40:41;;;;;;;1999.90;999.90;;;10.70;99.90;;;;;;6704645;88;20341;-77
2023/02/03 11:50:52;;;;;;;1999.90;999.90;;;10.50;99.90;;;;;;6708012;88;20182;-79
2023/02/03 12:01:17;;;;;;;1999.90;999.90;;;10.60;99.90;;;;;;6703077;88;20331;-78
2023/02/03 12:11:45;;;;;;;1999.90;999.90;;;10.50;99.90;;;;;;6699786;88;20212;-78
2023/02/03 12:22:10;;;;;;;1999.90;999.90;;;10.40;99.90;;;;;;6700393;88;20237;-77
2023/02/03 12:32:19;;;;;;;1999.90;999.90;;;10.30;99.90;;;;;;6705562;88;20336;-78
2023/02/03 12:42:43;;;;;;;1999.90;999.90;;;10.30;99.90;;;;;;6705891;88;20333;-78
2023/02/03 12:52:54;;;;;;;1999.90;999.90;;;10.30;99.90;;;;;;6706279;88;20696;-77
2023/02/03 13:03:15;;;;;;;1999.90;999.90;;;10.20;99.90;;;;;;6705765;88;20190;-78
2023/02/03 13:13:24;;;;;;;1999.90;999.90;;;10.20;99.90;;;;;;6704518;88;20216;-77
2023/02/03 13:23:25;;;;;;;1999.90;999.90;;;10.30;99.90;;;;;;6702858;88;20187;-78
2023/02/03 13:33:57;;;;;;;1999.90;999.90;;;10.30;99.90;;;;;;6704750;88;20200;-77
2023/02/03 13:43:58;;;;;;;1999.90;999.90;;;10.20;99.90;;;;;;6700605;88;20185;-78
2023/02/03 13:54:14;;;;;;;1999.90;999.90;;;10.10;99.90;;;;;;6701554;88;20585;-77
2023/02/03 14:04:23;;;;;;;1999.90;999.90;;;10.10;99.90;;;;;;6701992;88;20258;-77
2023/02/03 14:14:23;;;;;;;1999.90;999.90;;;10.00;99.90;;;;;;6700006;88;20207;-77
2023/02/03 14:24:32;;;;;;;1999.90;999.90;;;9.90;99.90;;;;;;6701966;88;20222;-79
2023/02/03 14:34:43;;;;;;;1999.90;999.90;;;9.80;99.90;;;;;;6700792;88;20211;-78
2023/02/03 14:45:30;;;;;;;1999.90;999.90;;;9.70;99.90;;;;;;6704911;88;20624;-78
2023/02/03 14:55:58;;;;;;;1999.90;999.90;;;9.80;99.90;;;;;;6703713;88;20328;-78
2023/02/03 15:06:04;;;;;;;1999.90;999.90;;;9.70;99.90;;;;;;6700785;88;20248;-77
2023/02/03 15:16:11;;;;;;;;;;;9.60;99.90;;;;;;6706514;88;20286;-78
2023/02/03 15:26:39;;;;;;;1999.90;999.90;;;9.60;99.90;;;;;;6706303;88;20642;-78
2023/02/03 15:36:46;;;;;;;1999.90;999.90;;;9.50;99.90;;;;;;6707453;88;20262;-78
2023/02/03 15:46:50;;;;;;;1999.90;999.90;;;9.50;99.90;;;;;;6709953;88;20257;-77
2023/02/03 15:56:56;;;;;;;1999.90;999.90;;;9.60;99.90;;;;;;6706761;88;20245;-78
2023/02/03 16:06:58;;;;;;;1999.90;999.90;;;9.70;99.90;;;;;;6706295;88;20666;-78
2023/02/03 16:16:58;;;;;;;1999.90;999.90;;;9.60;99.90;;;;;;6705549;88;20637;-77
2023/02/03 16:27:19;;;;;;;1999.90;999.90;;;9.70;99.90;;;;;;6706173;88;20190;-78
2023/02/03 16:58:04;;;;;;;1999.90;999.90;;;9.70;99.90;;;;;;6706554;88;20194;-76
2023/02/03 17:08:05;;;;;;;1999.90;999.90;;;9.60;99.90;;;;;;6707258;88;20740;-78
2023/02/03 17:18:06;;;;;;;1999.90;999.90;;;9.30;99.90;;;;;;6705905;78;20620;-76
2023/02/03 17:28:08;;;;;;;1999.90;999.90;;;9.10;99.90;;;;;;6704779;88;20494;-75
2023/02/03 17:38:13;;;;;;;1999.90;999.90;;;9.00;99.90;;;;;;6717232;88;20295;-75
2023/02/03 17:48:13;;;;;;;1999.90;999.90;;;8.90;99.90;;;;;;6703473;88;20562;-76
2023/02/03 17:58:14;;;;;;;1999.90;999.90;;;8.90;99.90;;;;;;6703297;88;20198;-76
2023/02/03 18:08:14;;;;;;;1999.90;999.90;;;8.70;99.90;;;;;;6705905;88;20236;-75
2023/02/03 18:18:15;;;;;;;1999.90;999.90;;;8.70;99.90;;;;;;6706482;88;20287;-75
2023/02/03 18:28:15;;;;;;;1999.90;999.90;;;8.70;99.90;;;;;;6702050;88;20733;-76
2023/02/03 18:38:16;;;;;;;1999.90;999.90;;;8.70;99.90;;;;;;6720091;88;20323;-77
2023/02/03 18:48:16;;;;;;;1999.90;999.90;;;8.70;99.90;;;;;;6709829;88;20230;-76
2023/02/03 18:58:17;;;;;;;1999.90;999.90;;;8.70;99.90;;;;;;6711328;88;20215;-75
2023/02/03 19:08:17;;;;;;;1999.90;999.90;;;8.80;99.90;;;;;;6706503;88;20183;-76
2023/02/03 19:18:18;;;;;;;1999.90;999.90;;;8.80;99.90;;;;;;6714501;88;20198;-75
2023/02/03 19:28:19;;;;;;;1999.90;999.90;;;8.80;99.90;;;;;;6716553;88;20204;-76
2023/02/03 19:38:19;;;;;;;1999.90;999.90;;;8.80;99.90;;;;;;6706828;88;20199;-76
2023/02/03 19:48:20;;;;;;;1999.90;999.90;;;8.90;99.90;;;;;;6705324;88;20654;-76
2023/02/03 19:58:22;;;;;;;1999.90;999.90;;;8.80;99.90;;;;;;6725889;88;20161;-76
2023/02/03 20:08:23;;;;;;;1999.90;999.90;;;9.00;99.90;;;;;;6743091;88;20149;-75
2023/02/03 20:18:24;;;;;;;1999.90;999.90;;;9.00;99.90;;;;;;6729544;88;20749;-75
2023/02/03 20:28:26;;;;;;;1999.90;999.90;;;9.00;99.90;;;;;;6715428;88;20241;-75
2023/02/03 20:38:27;;;;;;;1999.90;999.90;;;9.10;99.90;;;;;;6717797;88;20182;-76
2023/02/03 20:48:27;;;;;;;1999.90;999.90;;;9.10;99.90;;;;;;6706998;88;20714;-77
2023/02/03 20:58:31;;;;;;;1999.90;999.90;;;9.10;99.90;;;;;;6705840;88;20188;-76
2023/02/03 21:08:32;;;;;;;1999.90;999.90;;;9.20;99.90;;;;;;6709882;88;20529;-75
2023/02/03 21:18:44;;;;;;;1999.90;999.90;;;9.20;99.90;;;;;;6716928;88;20268;-75
2023/02/03 21:28:59;;;;;;;1999.90;999.90;;;9.10;99.90;;;;;;6711739;88;20299;-77
2023/02/03 21:39:00;;;;;;;1999.90;999.90;;;9.10;99.90;;;;;;6709833;88;20181;-77
2023/02/03 21:49:03;;;;;;;1999.90;999.90;;;9.10;99.90;;;;;;6710122;88;20187;-77
2023/02/03 21:59:12;;;;;;;1999.90;999.90;;;9.00;99.90;;;;;;6716684;88;20320;-76
2023/02/03 22:09:14;;;;;;;1999.90;999.90;;;9.00;99.90;;;;;;6705208;88;20268;-76
2023/02/03 22:19:18;;;;;;;1999.90;999.90;;;9.00;99.90;;;;;;6709369;88;20222;-76
2023/02/03 22:29:18;;;;;;;1999.90;999.90;;;9.00;99.90;;;;;;6717201;88;20260;-77
2023/02/03 22:39:19;;;;;;;1999.90;999.90;;;9.00;99.90;;;;;;6719203;88;20209;-76
2023/02/03 22:49:19;;;;;;;1999.90;999.90;;;8.90;99.90;;;;;;6713942;88;20200;-77
2023/02/03 22:59:20;;;;;;;1999.90;999.90;;;8.90;99.90;;;;;;6721849;88;20284;-77
2023/02/03 23:09:20;;;;;;;1999.90;999.90;;;8.80;99.90;;;;;;6718563;88;20856;-75
2023/02/03 23:19:21;;;;;;;1999.90;999.90;;;8.80;99.90;;;;;;6711537;88;20183;-76
2023/02/03 23:29:21;;;;;;;1999.90;999.90;;;8.80;99.90;;;;;;6713318;88;20186;-76
2023/02/03 23:39:22;;;;;;;1999.90;999.90;;;8.80;99.90;;;;;;6718453;88;20605;-75
2023/02/03 23:49:23;;;;;;;1999.90;999.90;;;8.80;99.90;;;;;;6717555;88;20194;-76
2023/02/03 23:59:23;;;;;;;1999.90;999.90;;;8.70;99.90;;;;;;6711905;88;20510;-77
